sensor_id;sensor_type;location;lat;lon;timestamp;temperature;humidity
3638;DHT22;1835;50.068;8.154;2022-07-05T00:02:11;17.30;99.40
3638;DHT22;1835;50.068;8.154;2022-07-05T00:04:41;17.30;99.30
3638;DHT22;1835;50.068;8.154;2022-07-05T00:07:10;17.30;99.40
3638;DHT22;1835;50.068;8.154;2022-07-05T00:09:50;17.30;99.30
3638;DHT22;1835;50.068;8.154;2022-07-05T00:12:21;17.00;99.60
3638;DHT22;1835;50.068;8.154;2022-07-05T00:14:51;16.90;99.90
3638;DHT22;1835;50.068;8.154;2022-07-05T00:17:19;16.80;99.80
3638;DHT22;1835;50.068;8.154;2022-07-05T00:19:49;16.90;99.90
3638;DHT22;1835;50.068;8.154;2022-07-05T00:22:17;17.00;99.90
3638;DHT22;1835;50.068;8.154;2022-07-05T00:24:45;16.90;99.60
3638;DHT22;1835;50.068;8.154;2022-07-05T00:27:13;16.80;99.90
3638;DHT22;1835;50.068;8.154;2022-07-05T00:29:42;16.80;99.90
3638;DHT22;1835;50.068;8.154;2022-07-05T00:32:11;16.70;99.90
3638;DHT22;1835;50.068;8.154;2022-07-05T00:34:40;16.70;99.90
3638;DHT22;1835;50.068;8.154;2022-07-05T00:37:11;16.60;99.90
3638;DHT22;1835;50.068;8.154;2022-07-05T00:39:40;16.60;99.90
3638;DHT22;1835;50.068;8.154;2022-07-05T00:42:09;16.30;99.90
3638;DHT22;1835;50.068;8.154;2022-07-05T00:44:38;16.00;99.90
3638;DHT22;1835;50.068;8.154;2022-07-05T00:47:10;15.80;99.90
3638;DHT22;1835;50.068;8.154;2022-07-05T00:49:40;15.80;99.90
3638;DHT22;1835;50.068;8.154;2022-07-05T00:52:11;15.90;99.90
3638;DHT22;1835;50.068;8.154;2022-07-05T00:54:46;16.10;99.90
3638;DHT22;1835;50.068;8.154;2022-07-05T00:57:15;16.20;99.90
3638;DHT22;1835;50.068;8.154;2022-07-05T00:59:44;16.30;99.90
3638;DHT22;1835;50.068;8.154;2022-07-05T01:02:12;16.40;99.90
3638;DHT22;1835;50.068;8.154;2022-07-05T01:04:46;16.20;99.90
3638;DHT22;1835;50.068;8.154;2022-07-05T01:07:18;16.10;99.90
3638;DHT22;1835;50.068;8.154;2022-07-05T01:09:47;16.10;99.90
3638;DHT22;1835;50.068;8.154;2022-07-05T01:12:16;16.20;99.90
3638;DHT22;1835;50.068;8.154;2022-07-05T01:14:45;16.10;99.90
3638;DHT22;1835;50.068;8.154;2022-07-05T01:17:14;16.20;99.90
3638;DHT22;1835;50.068;8.154;2022-07-05T01:19:43;16.40;99.90
3638;DHT22;1835;50.068;8.154;2022-07-05T01:22:17;16.40;99.90
3638;DHT22;1835;50.068;8.154;2022-07-05T01:24:49;16.30;99.90
3638;DHT22;1835;50.068;8.154;2022-07-05T01:27:19;16.40;99.90
3638;DHT22;1835;50.068;8.154;2022-07-05T01:29:48;16.50;99.90
3638;DHT22;1835;50.068;8.154;2022-07-05T01:32:16;16.40;99.90
3638;DHT22;1835;50.068;8.154;2022-07-05T01:34:45;16.30;99.90
3638;DHT22;1835;50.068;8.154;2022-07-05T01:37:14;16.20;99.90
3638;DHT22;1835;50.068;8.154;2022-07-05T01:39:43;16.30;99.90
3638;DHT22;1835;50.068;8.154;2022-07-05T01:42:13;16.40;99.90
3638;DHT22;1835;50.068;8.154;2022-07-05T01:44:41;16.40;99.90
3638;DHT22;1835;50.068;8.154;2022-07-05T01:47:10;16.30;99.90
3638;DHT22;1835;50.068;8.154;2022-07-05T01:49:41;16.20;99.90
3638;DHT22;1835;50.068;8.154;2022-07-05T01:52:12;15.70;99.90
3638;DHT22;1835;50.068;8.154;2022-07-05T01:54:41;15.80;99.90
3638;DHT22;1835;50.068;8.154;2022-07-05T01:57:10;15.80;99.90
3638;DHT22;1835;50.068;8.154;2022-07-05T01:59:40;15.80;99.90
3638;DHT22;1835;50.068;8.154;2022-07-05T02:02:08;15.80;99.90
3638;DHT22;1835;50.068;8.154;2022-07-05T02:04:37;15.60;99.90
3638;DHT22;1835;50.068;8.154;2022-07-05T02:07:06;15.60;99.90
3638;DHT22;1835;50.068;8.154;2022-07-05T02:09:36;15.50;99.90
3638;DHT22;1835;50.068;8.154;2022-07-05T02:12:05;15.40;99.90
3638;DHT22;1835;50.068;8.154;2022-07-05T02:14:33;15.50;99.90
3638;DHT22;1835;50.068;8.154;2022-07-05T02:17:03;15.50;99.90
3638;DHT22;1835;50.068;8.154;2022-07-05T02:19:32;15.50;99.90
3638;DHT22;1835;50.068;8.154;2022-07-05T02:22:00;15.30;99.90
3638;DHT22;1835;50.068;8.154;2022-07-05T02:24:28;15.40;99.90
3638;DHT22;1835;50.068;8.154;2022-07-05T02:26:57;15.40;99.90
3638;DHT22;1835;50.068;8.154;2022-07-05T02:29:25;15.20;99.90
3638;DHT22;1835;50.068;8.154;2022-07-05T02:31:53;15.10;99.90
3638;DHT22;1835;50.068;8.154;2022-07-05T02:34:23;15.10;99.90
3638;DHT22;1835;50.068;8.154;2022-07-05T02:36:51;15.20;99.90
3638;DHT22;1835;50.068;8.154;2022-07-05T02:39:19;15.20;99.90
3638;DHT22;1835;50.068;8.154;2022-07-05T02:41:48;15.20;99.90
3638;DHT22;1835;50.068;8.154;2022-07-05T02:44:16;15.00;99.90
3638;DHT22;1835;50.068;8.154;2022-07-05T02:46:44;15.00;99.90
3638;DHT22;1835;50.068;8.154;2022-07-05T02:49:12;14.90;99.90
3638;DHT22;1835;50.068;8.154;2022-07-05T02:51:43;14.80;99.90
3638;DHT22;1835;50.068;8.154;2022-07-05T02:54:11;14.70;99.90
3638;DHT22;1835;50.068;8.154;2022-07-05T02:56:39;14.60;99.90
3638;DHT22;1835;50.068;8.154;2022-07-05T02:59:07;14.70;99.90
3638;DHT22;1835;50.068;8.154;2022-07-05T03:01:35;14.80;99.90
3638;DHT22;1835;50.068;8.154;2022-07-05T03:04:04;14.90;99.90
3638;DHT22;1835;50.068;8.154;2022-07-05T03:06:33;15.10;99.90
3638;DHT22;1835;50.068;8.154;2022-07-05T03:09:02;15.00;99.90
3638;DHT22;1835;50.068;8.154;2022-07-05T03:11:31;14.90;99.90
3638;DHT22;1835;50.068;8.154;2022-07-05T03:13:59;15.10;99.90
3638;DHT22;1835;50.068;8.154;2022-07-05T03:16:27;15.10;99.90
3638;DHT22;1835;50.068;8.154;2022-07-05T03:18:56;15.30;99.90
3638;DHT22;1835;50.068;8.154;2022-07-05T03:21:24;15.10;99.90
3638;DHT22;1835;50.068;8.154;2022-07-05T03:23:52;15.20;99.90
3638;DHT22;1835;50.068;8.154;2022-07-05T03:26:21;15.10;99.90
3638;DHT22;1835;50.068;8.154;2022-07-05T03:28:49;15.00;99.90
3638;DHT22;1835;50.068;8.154;2022-07-05T03:31:17;15.00;99.90
3638;DHT22;1835;50.068;8.154;2022-07-05T03:33:46;15.00;99.90
3638;DHT22;1835;50.068;8.154;2022-07-05T03:36:14;15.00;99.90
3638;DHT22;1835;50.068;8.154;2022-07-05T03:38:42;15.10;99.90
3638;DHT22;1835;50.068;8.154;2022-07-05T03:41:10;15.30;99.90
3638;DHT22;1835;50.068;8.154;2022-07-05T03:43:40;15.50;99.90
3638;DHT22;1835;50.068;8.154;2022-07-05T03:46:08;15.50;99.90
3638;DHT22;1835;50.068;8.154;2022-07-05T03:48:36;15.50;99.90
3638;DHT22;1835;50.068;8.154;2022-07-05T03:51:07;15.30;99.90
3638;DHT22;1835;50.068;8.154;2022-07-05T03:53:36;15.30;99.90
3638;DHT22;1835;50.068;8.154;2022-07-05T03:56:04;15.40;99.90
3638;DHT22;1835;50.068;8.154;2022-07-05T03:58:32;15.60;99.90
3638;DHT22;1835;50.068;8.154;2022-07-05T04:01:01;15.60;99.90
3638;DHT22;1835;50.068;8.154;2022-07-05T04:03:30;15.70;99.90
3638;DHT22;1835;50.068;8.154;2022-07-05T04:06:06;15.70;99.90
3638;DHT22;1835;50.068;8.154;2022-07-05T04:08:34;15.90;99.90
3638;DHT22;1835;50.068;8.154;2022-07-05T04:11:03;15.90;99.90
3638;DHT22;1835;50.068;8.154;2022-07-05T04:13:31;16.00;99.90
3638;DHT22;1835;50.068;8.154;2022-07-05T04:16:01;15.90;99.90
3638;DHT22;1835;50.068;8.154;2022-07-05T04:18:29;16.00;99.90
3638;DHT22;1835;50.068;8.154;2022-07-05T04:20:57;15.90;99.90
3638;DHT22;1835;50.068;8.154;2022-07-05T04:23:25;16.00;99.90
3638;DHT22;1835;50.068;8.154;2022-07-05T04:25:54;15.90;99.90
3638;DHT22;1835;50.068;8.154;2022-07-05T04:28:22;15.90;99.90
3638;DHT22;1835;50.068;8.154;2022-07-05T04:30:50;15.70;99.90
3638;DHT22;1835;50.068;8.154;2022-07-05T04:33:20;15.70;99.90
3638;DHT22;1835;50.068;8.154;2022-07-05T04:35:48;15.70;99.90
3638;DHT22;1835;50.068;8.154;2022-07-05T04:38:16;15.80;99.90
3638;DHT22;1835;50.068;8.154;2022-07-05T04:40:44;15.80;99.90
3638;DHT22;1835;50.068;8.154;2022-07-05T04:43:13;15.80;99.90
3638;DHT22;1835;50.068;8.154;2022-07-05T04:45:42;15.90;99.90
3638;DHT22;1835;50.068;8.154;2022-07-05T04:48:14;15.90;99.90
3638;DHT22;1835;50.068;8.154;2022-07-05T04:50:43;15.90;99.90
3638;DHT22;1835;50.068;8.154;2022-07-05T04:53:12;16.00;99.90
3638;DHT22;1835;50.068;8.154;2022-07-05T04:55:40;16.00;99.90
3638;DHT22;1835;50.068;8.154;2022-07-05T04:58:08;16.20;99.90
3638;DHT22;1835;50.068;8.154;2022-07-05T05:00:37;16.30;99.90
3638;DHT22;1835;50.068;8.154;2022-07-05T05:03:07;16.40;99.90
3638;DHT22;1835;50.068;8.154;2022-07-05T05:05:35;16.40;99.90
3638;DHT22;1835;50.068;8.154;2022-07-05T05:08:05;16.20;99.90
3638;DHT22;1835;50.068;8.154;2022-07-05T05:10:33;16.20;99.90
3638;DHT22;1835;50.068;8.154;2022-07-05T05:13:01;16.00;99.90
3638;DHT22;1835;50.068;8.154;2022-07-05T05:15:29;15.90;99.90
3638;DHT22;1835;50.068;8.154;2022-07-05T05:17:57;15.90;99.90
3638;DHT22;1835;50.068;8.154;2022-07-05T05:20:25;16.00;99.90
3638;DHT22;1835;50.068;8.154;2022-07-05T05:22:54;16.10;99.90
3638;DHT22;1835;50.068;8.154;2022-07-05T05:25:23;15.90;99.90
3638;DHT22;1835;50.068;8.154;2022-07-05T05:27:53;15.90;99.90
3638;DHT22;1835;50.068;8.154;2022-07-05T05:30:21;16.00;99.90
3638;DHT22;1835;50.068;8.154;2022-07-05T05:32:50;16.20;99.90
3638;DHT22;1835;50.068;8.154;2022-07-05T05:35:18;16.60;99.90
3638;DHT22;1835;50.068;8.154;2022-07-05T05:37:50;17.50;99.90
3638;DHT22;1835;50.068;8.154;2022-07-05T05:40:19;18.30;99.90
3638;DHT22;1835;50.068;8.154;2022-07-05T05:42:49;19.20;99.90
3638;DHT22;1835;50.068;8.154;2022-07-05T05:45:18;19.90;99.90
3638;DHT22;1835;50.068;8.154;2022-07-05T05:47:48;20.60;99.90
3638;DHT22;1835;50.068;8.154;2022-07-05T05:50:21;21.00;99.90
3638;DHT22;1835;50.068;8.154;2022-07-05T05:52:50;21.60;99.90
3638;DHT22;1835;50.068;8.154;2022-07-05T05:55:20;22.10;99.50
3638;DHT22;1835;50.068;8.154;2022-07-05T05:57:50;22.40;99.60
3638;DHT22;1835;50.068;8.154;2022-07-05T06:00:19;22.80;98.60
3638;DHT22;1835;50.068;8.154;2022-07-05T06:02:49;23.10;99.30
3638;DHT22;1835;50.068;8.154;2022-07-05T06:05:18;23.50;97.90
3638;DHT22;1835;50.068;8.154;2022-07-05T06:07:49;23.80;96.40
3638;DHT22;1835;50.068;8.154;2022-07-05T06:10:19;23.80;97.30
3638;DHT22;1835;50.068;8.154;2022-07-05T06:12:51;23.60;96.90
3638;DHT22;1835;50.068;8.154;2022-07-05T06:15:20;23.50;97.00
3638;DHT22;1835;50.068;8.154;2022-07-05T06:17:49;24.10;96.70
3638;DHT22;1835;50.068;8.154;2022-07-05T06:20:20;24.70;95.70
3638;DHT22;1835;50.068;8.154;2022-07-05T06:22:50;25.40;95.60
3638;DHT22;1835;50.068;8.154;2022-07-05T06:25:19;25.80;94.30
3638;DHT22;1835;50.068;8.154;2022-07-05T06:27:53;26.20;91.90
3638;DHT22;1835;50.068;8.154;2022-07-05T06:30:23;26.20;92.30
3638;DHT22;1835;50.068;8.154;2022-07-05T06:32:52;26.20;89.10
3638;DHT22;1835;50.068;8.154;2022-07-05T06:35:22;26.30;91.30
3638;DHT22;1835;50.068;8.154;2022-07-05T06:37:52;26.70;89.40
3638;DHT22;1835;50.068;8.154;2022-07-05T06:40:22;27.20;89.20
3638;DHT22;1835;50.068;8.154;2022-07-05T06:42:55;27.40;87.90
3638;DHT22;1835;50.068;8.154;2022-07-05T06:45:25;27.70;85.50
3638;DHT22;1835;50.068;8.154;2022-07-05T06:47:54;28.00;78.20
3638;DHT22;1835;50.068;8.154;2022-07-05T06:50:23;28.70;71.60
3638;DHT22;1835;50.068;8.154;2022-07-05T06:52:52;29.70;68.30
3638;DHT22;1835;50.068;8.154;2022-07-05T06:55:20;29.80;66.30
3638;DHT22;1835;50.068;8.154;2022-07-05T06:57:48;30.10;64.30
3638;DHT22;1835;50.068;8.154;2022-07-05T07:00:39;29.70;68.90
3638;DHT22;1835;50.068;8.154;2022-07-05T07:03:27;29.80;65.30
3638;DHT22;1835;50.068;8.154;2022-07-05T07:06:15;30.10;67.90
3638;DHT22;1835;50.068;8.154;2022-07-05T07:08:44;29.80;61.70
3638;DHT22;1835;50.068;8.154;2022-07-05T07:11:29;30.20;61.00
3638;DHT22;1835;50.068;8.154;2022-07-05T07:13:57;30.20;58.40
3638;DHT22;1835;50.068;8.154;2022-07-05T07:16:27;30.20;56.40
3638;DHT22;1835;50.068;8.154;2022-07-05T07:18:56;30.50;56.80
3638;DHT22;1835;50.068;8.154;2022-07-05T07:21:41;30.10;54.60
3638;DHT22;1835;50.068;8.154;2022-07-05T07:24:10;29.70;55.70
3638;DHT22;1835;50.068;8.154;2022-07-05T07:26:39;30.10;58.10
3638;DHT22;1835;50.068;8.154;2022-07-05T07:29:31;30.40;57.00
3638;DHT22;1835;50.068;8.154;2022-07-05T07:32:01;30.90;56.70
3638;DHT22;1835;50.068;8.154;2022-07-05T07:34:33;31.10;55.40
3638;DHT22;1835;50.068;8.154;2022-07-05T07:37:01;31.20;52.50
3638;DHT22;1835;50.068;8.154;2022-07-05T07:39:30;31.40;50.90
3638;DHT22;1835;50.068;8.154;2022-07-05T07:41:58;31.70;52.70
3638;DHT22;1835;50.068;8.154;2022-07-05T07:44:27;31.60;51.80
3638;DHT22;1835;50.068;8.154;2022-07-05T07:46:55;31.50;50.90
3638;DHT22;1835;50.068;8.154;2022-07-05T07:49:25;32.40;50.00
3638;DHT22;1835;50.068;8.154;2022-07-05T07:51:53;31.80;47.40
3638;DHT22;1835;50.068;8.154;2022-07-05T07:54:21;31.50;47.30
3638;DHT22;1835;50.068;8.154;2022-07-05T07:56:50;31.70;46.80
3638;DHT22;1835;50.068;8.154;2022-07-05T07:59:18;32.50;49.20
3638;DHT22;1835;50.068;8.154;2022-07-05T08:01:46;32.60;46.20
3638;DHT22;1835;50.068;8.154;2022-07-05T08:04:14;33.10;46.90
3638;DHT22;1835;50.068;8.154;2022-07-05T08:06:44;33.00;47.50
3638;DHT22;1835;50.068;8.154;2022-07-05T08:09:13;32.70;47.90
3638;DHT22;1835;50.068;8.154;2022-07-05T08:11:43;32.40;44.70
3638;DHT22;1835;50.068;8.154;2022-07-05T08:14:12;33.00;44.60
3638;DHT22;1835;50.068;8.154;2022-07-05T08:16:40;32.90;43.90
3638;DHT22;1835;50.068;8.154;2022-07-05T08:19:16;33.30;45.70
3638;DHT22;1835;50.068;8.154;2022-07-05T08:22:04;33.50;46.50
3638;DHT22;1835;50.068;8.154;2022-07-05T08:24:35;33.50;44.10
3638;DHT22;1835;50.068;8.154;2022-07-05T08:27:04;33.60;42.80
3638;DHT22;1835;50.068;8.154;2022-07-05T08:29:34;33.70;43.70
3638;DHT22;1835;50.068;8.154;2022-07-05T08:32:03;34.60;42.20
3638;DHT22;1835;50.068;8.154;2022-07-05T08:34:32;33.30;41.10
3638;DHT22;1835;50.068;8.154;2022-07-05T08:37:00;34.00;42.30
3638;DHT22;1835;50.068;8.154;2022-07-05T08:39:30;34.40;41.50
3638;DHT22;1835;50.068;8.154;2022-07-05T08:41:59;34.70;41.90
3638;DHT22;1835;50.068;8.154;2022-07-05T08:44:29;34.10;38.60
3638;DHT22;1835;50.068;8.154;2022-07-05T08:47:02;33.60;40.10
3638;DHT22;1835;50.068;8.154;2022-07-05T08:49:31;34.30;40.80
3638;DHT22;1835;50.068;8.154;2022-07-05T08:52:02;34.20;40.70
3638;DHT22;1835;50.068;8.154;2022-07-05T08:54:33;34.70;40.30
3638;DHT22;1835;50.068;8.154;2022-07-05T08:57:04;35.00;38.10
3638;DHT22;1835;50.068;8.154;2022-07-05T08:59:39;34.90;38.40
3638;DHT22;1835;50.068;8.154;2022-07-05T09:02:11;35.00;39.70
3638;DHT22;1835;50.068;8.154;2022-07-05T09:04:43;34.60;38.00
3638;DHT22;1835;50.068;8.154;2022-07-05T09:07:16;32.80;39.40
3638;DHT22;1835;50.068;8.154;2022-07-05T09:09:48;33.30;41.10
3638;DHT22;1835;50.068;8.154;2022-07-05T09:12:18;33.60;43.60
3638;DHT22;1835;50.068;8.154;2022-07-05T09:14:52;33.80;41.50
3638;DHT22;1835;50.068;8.154;2022-07-05T09:17:22;34.50;39.90
3638;DHT22;1835;50.068;8.154;2022-07-05T09:20:07;34.10;37.80
3638;DHT22;1835;50.068;8.154;2022-07-05T09:22:45;33.90;36.00
3638;DHT22;1835;50.068;8.154;2022-07-05T09:25:19;34.20;37.10
3638;DHT22;1835;50.068;8.154;2022-07-05T09:27:54;32.90;38.60
3638;DHT22;1835;50.068;8.154;2022-07-05T09:30:29;33.40;39.50
3638;DHT22;1835;50.068;8.154;2022-07-05T09:33:02;33.90;41.00
3638;DHT22;1835;50.068;8.154;2022-07-05T09:35:33;33.70;37.40
3638;DHT22;1835;50.068;8.154;2022-07-05T09:38:02;32.30;38.40
3638;DHT22;1835;50.068;8.154;2022-07-05T09:40:33;32.50;40.40
3638;DHT22;1835;50.068;8.154;2022-07-05T09:43:14;33.60;42.10
3638;DHT22;1835;50.068;8.154;2022-07-05T09:45:59;33.80;40.80
3638;DHT22;1835;50.068;8.154;2022-07-05T09:48:29;34.20;37.20
3638;DHT22;1835;50.068;8.154;2022-07-05T09:51:09;34.00;38.30
3638;DHT22;1835;50.068;8.154;2022-07-05T09:54:00;32.80;40.30
3638;DHT22;1835;50.068;8.154;2022-07-05T09:56:45;31.80;41.30
3638;DHT22;1835;50.068;8.154;2022-07-05T09:59:15;32.10;42.30
3638;DHT22;1835;50.068;8.154;2022-07-05T10:01:45;31.70;40.90
3638;DHT22;1835;50.068;8.154;2022-07-05T10:04:15;32.00;42.30
3638;DHT22;1835;50.068;8.154;2022-07-05T10:06:44;32.70;38.90
3638;DHT22;1835;50.068;8.154;2022-07-05T10:09:12;33.40;40.20
3638;DHT22;1835;50.068;8.154;2022-07-05T10:11:45;32.70;38.40
3638;DHT22;1835;50.068;8.154;2022-07-05T10:14:19;32.50;38.10
3638;DHT22;1835;50.068;8.154;2022-07-05T10:16:57;33.10;40.70
3638;DHT22;1835;50.068;8.154;2022-07-05T10:19:32;33.30;38.80
3638;DHT22;1835;50.068;8.154;2022-07-05T10:22:03;34.00;37.80
3638;DHT22;1835;50.068;8.154;2022-07-05T10:24:47;33.60;37.90
3638;DHT22;1835;50.068;8.154;2022-07-05T10:27:19;33.70;36.20
3638;DHT22;1835;50.068;8.154;2022-07-05T10:29:49;33.90;36.30
3638;DHT22;1835;50.068;8.154;2022-07-05T10:32:18;33.90;39.00
3638;DHT22;1835;50.068;8.154;2022-07-05T10:34:47;33.70;37.30
3638;DHT22;1835;50.068;8.154;2022-07-05T10:37:31;32.40;36.30
3638;DHT22;1835;50.068;8.154;2022-07-05T10:40:02;31.30;39.60
3638;DHT22;1835;50.068;8.154;2022-07-05T10:42:37;31.50;38.30
3638;DHT22;1835;50.068;8.154;2022-07-05T10:45:26;31.60;39.70
3638;DHT22;1835;50.068;8.154;2022-07-05T10:48:18;31.60;38.20
3638;DHT22;1835;50.068;8.154;2022-07-05T10:50:52;31.20;39.20
3638;DHT22;1835;50.068;8.154;2022-07-05T10:53:23;30.90;41.30
3638;DHT22;1835;50.068;8.154;2022-07-05T10:55:54;30.20;39.60
3638;DHT22;1835;50.068;8.154;2022-07-05T10:58:28;30.00;43.30
3638;DHT22;1835;50.068;8.154;2022-07-05T11:04:19;29.60;42.50
3638;DHT22;1835;50.068;8.154;2022-07-05T11:06:53;28.90;43.80
3638;DHT22;1835;50.068;8.154;2022-07-05T11:09:21;28.80;45.60
3638;DHT22;1835;50.068;8.154;2022-07-05T11:12:11;29.20;43.70
3638;DHT22;1835;50.068;8.154;2022-07-05T11:15:06;28.70;43.10
3638;DHT22;1835;50.068;8.154;2022-07-05T11:17:37;28.10;43.60
3638;DHT22;1835;50.068;8.154;2022-07-05T11:20:32;27.90;44.10
3638;DHT22;1835;50.068;8.154;2022-07-05T11:25:55;28.30;43.10
3638;DHT22;1835;50.068;8.154;2022-07-05T11:28:23;28.50;45.90
3638;DHT22;1835;50.068;8.154;2022-07-05T11:30:55;28.30;44.80
3638;DHT22;1835;50.068;8.154;2022-07-05T11:33:35;27.90;44.00
3638;DHT22;1835;50.068;8.154;2022-07-05T11:36:07;27.90;47.30
3638;DHT22;1835;50.068;8.154;2022-07-05T11:39:06;28.00;48.20
3638;DHT22;1835;50.068;8.154;2022-07-05T11:41:43;28.40;45.70
3638;DHT22;1835;50.068;8.154;2022-07-05T11:44:12;28.50;45.80
3638;DHT22;1835;50.068;8.154;2022-07-05T11:46:43;28.90;46.70
3638;DHT22;1835;50.068;8.154;2022-07-05T11:49:22;28.90;42.60
3638;DHT22;1835;50.068;8.154;2022-07-05T11:51:55;29.10;45.80
3638;DHT22;1835;50.068;8.154;2022-07-05T11:54:28;28.80;42.60
3638;DHT22;1835;50.068;8.154;2022-07-05T11:56:59;28.60;43.60
3638;DHT22;1835;50.068;8.154;2022-07-05T11:59:28;28.60;43.00
3638;DHT22;1835;50.068;8.154;2022-07-05T12:01:57;28.50;44.10
3638;DHT22;1835;50.068;8.154;2022-07-05T12:04:27;28.20;44.80
3638;DHT22;1835;50.068;8.154;2022-07-05T12:06:57;28.30;45.30
3638;DHT22;1835;50.068;8.154;2022-07-05T12:09:26;28.50;45.70
3638;DHT22;1835;50.068;8.154;2022-07-05T12:12:18;28.30;43.10
3638;DHT22;1835;50.068;8.154;2022-07-05T12:15:17;28.30;43.70
3638;DHT22;1835;50.068;8.154;2022-07-05T12:17:49;27.60;45.00
3638;DHT22;1835;50.068;8.154;2022-07-05T12:20:22;27.70;44.00
3638;DHT22;1835;50.068;8.154;2022-07-05T12:22:51;27.90;45.60
3638;DHT22;1835;50.068;8.154;2022-07-05T12:25:21;27.60;46.30
3638;DHT22;1835;50.068;8.154;2022-07-05T12:27:52;27.40;45.90
3638;DHT22;1835;50.068;8.154;2022-07-05T12:30:21;27.20;48.00
3638;DHT22;1835;50.068;8.154;2022-07-05T12:33:00;27.10;47.00
3638;DHT22;1835;50.068;8.154;2022-07-05T12:35:35;27.00;47.70
3638;DHT22;1835;50.068;8.154;2022-07-05T12:38:06;27.30;46.00
3638;DHT22;1835;50.068;8.154;2022-07-05T12:40:36;27.50;45.20
3638;DHT22;1835;50.068;8.154;2022-07-05T12:43:07;27.70;44.90
3638;DHT22;1835;50.068;8.154;2022-07-05T12:45:37;28.00;44.30
3638;DHT22;1835;50.068;8.154;2022-07-05T12:48:09;27.70;44.40
3638;DHT22;1835;50.068;8.154;2022-07-05T12:50:46;27.60;46.20
3638;DHT22;1835;50.068;8.154;2022-07-05T12:53:44;27.50;45.40
3638;DHT22;1835;50.068;8.154;2022-07-05T12:56:30;27.60;46.40
3638;DHT22;1835;50.068;8.154;2022-07-05T12:59:36;27.80;46.30
3638;DHT22;1835;50.068;8.154;2022-07-05T13:02:05;27.60;46.50
3638;DHT22;1835;50.068;8.154;2022-07-05T13:04:35;27.70;46.50
3638;DHT22;1835;50.068;8.154;2022-07-05T13:07:09;27.50;47.40
3638;DHT22;1835;50.068;8.154;2022-07-05T13:10:13;27.20;47.60
3638;DHT22;1835;50.068;8.154;2022-07-05T13:12:42;27.20;50.90
3638;DHT22;1835;50.068;8.154;2022-07-05T13:15:11;27.20;47.10
3638;DHT22;1835;50.068;8.154;2022-07-05T13:17:40;27.50;46.90
3638;DHT22;1835;50.068;8.154;2022-07-05T13:20:12;27.70;46.90
3638;DHT22;1835;50.068;8.154;2022-07-05T13:22:41;28.00;45.30
3638;DHT22;1835;50.068;8.154;2022-07-05T13:25:10;28.00;44.80
3638;DHT22;1835;50.068;8.154;2022-07-05T13:27:39;27.80;44.80
3638;DHT22;1835;50.068;8.154;2022-07-05T13:30:09;27.70;46.70
3638;DHT22;1835;50.068;8.154;2022-07-05T13:32:38;27.60;47.60
3638;DHT22;1835;50.068;8.154;2022-07-05T13:35:07;27.70;47.00
3638;DHT22;1835;50.068;8.154;2022-07-05T13:37:37;27.70;47.30
3638;DHT22;1835;50.068;8.154;2022-07-05T13:40:06;27.60;48.50
3638;DHT22;1835;50.068;8.154;2022-07-05T13:42:35;27.50;48.40
3638;DHT22;1835;50.068;8.154;2022-07-05T13:45:04;27.40;48.90
3638;DHT22;1835;50.068;8.154;2022-07-05T13:47:33;27.60;48.10
3638;DHT22;1835;50.068;8.154;2022-07-05T13:50:01;27.80;50.30
3638;DHT22;1835;50.068;8.154;2022-07-05T13:52:48;28.00;47.90
3638;DHT22;1835;50.068;8.154;2022-07-05T13:55:17;28.10;48.70
3638;DHT22;1835;50.068;8.154;2022-07-05T13:57:45;27.90;49.60
3638;DHT22;1835;50.068;8.154;2022-07-05T14:00:14;28.00;48.90
3638;DHT22;1835;50.068;8.154;2022-07-05T14:02:43;27.70;47.70
3638;DHT22;1835;50.068;8.154;2022-07-05T14:05:11;27.40;47.80
3638;DHT22;1835;50.068;8.154;2022-07-05T14:07:40;27.40;49.30
3638;DHT22;1835;50.068;8.154;2022-07-05T14:10:09;27.30;50.90
3638;DHT22;1835;50.068;8.154;2022-07-05T14:12:38;27.40;51.00
3638;DHT22;1835;50.068;8.154;2022-07-05T14:15:07;27.50;50.60
3638;DHT22;1835;50.068;8.154;2022-07-05T14:17:36;27.50;49.60
3638;DHT22;1835;50.068;8.154;2022-07-05T14:20:05;27.30;49.70
3638;DHT22;1835;50.068;8.154;2022-07-05T14:22:35;27.30;50.90
3638;DHT22;1835;50.068;8.154;2022-07-05T14:25:04;27.60;49.70
3638;DHT22;1835;50.068;8.154;2022-07-05T14:27:34;27.70;50.10
3638;DHT22;1835;50.068;8.154;2022-07-05T14:30:02;27.90;49.60
3638;DHT22;1835;50.068;8.154;2022-07-05T14:32:31;28.10;49.50
3638;DHT22;1835;50.068;8.154;2022-07-05T14:34:59;28.00;50.10
3638;DHT22;1835;50.068;8.154;2022-07-05T14:37:27;28.10;49.50
3638;DHT22;1835;50.068;8.154;2022-07-05T14:39:55;28.00;50.20
3638;DHT22;1835;50.068;8.154;2022-07-05T14:42:24;28.10;50.40
3638;DHT22;1835;50.068;8.154;2022-07-05T14:44:53;28.10;50.00
3638;DHT22;1835;50.068;8.154;2022-07-05T14:47:21;27.90;49.80
3638;DHT22;1835;50.068;8.154;2022-07-05T14:49:53;27.70;49.20
3638;DHT22;1835;50.068;8.154;2022-07-05T14:52:22;27.80;47.60
3638;DHT22;1835;50.068;8.154;2022-07-05T14:54:50;27.80;48.90
3638;DHT22;1835;50.068;8.154;2022-07-05T14:57:18;27.70;48.30
3638;DHT22;1835;50.068;8.154;2022-07-05T14:59:46;27.50;50.60
3638;DHT22;1835;50.068;8.154;2022-07-05T15:02:16;27.40;50.40
3638;DHT22;1835;50.068;8.154;2022-07-05T15:04:44;27.20;51.50
3638;DHT22;1835;50.068;8.154;2022-07-05T15:07:12;27.00;51.50
3638;DHT22;1835;50.068;8.154;2022-07-05T15:09:41;27.00;53.10
3638;DHT22;1835;50.068;8.154;2022-07-05T15:12:10;27.00;52.60
3638;DHT22;1835;50.068;8.154;2022-07-05T15:14:38;27.20;53.50
3638;DHT22;1835;50.068;8.154;2022-07-05T15:17:06;27.30;52.50
3638;DHT22;1835;50.068;8.154;2022-07-05T15:19:35;27.40;52.60
3638;DHT22;1835;50.068;8.154;2022-07-05T15:22:05;27.60;51.50
3638;DHT22;1835;50.068;8.154;2022-07-05T15:24:34;27.60;51.90
3638;DHT22;1835;50.068;8.154;2022-07-05T15:27:02;27.60;52.00
3638;DHT22;1835;50.068;8.154;2022-07-05T15:29:44;27.70;53.20
3638;DHT22;1835;50.068;8.154;2022-07-05T15:32:12;27.70;52.40
3638;DHT22;1835;50.068;8.154;2022-07-05T15:34:41;27.50;52.40
3638;DHT22;1835;50.068;8.154;2022-07-05T15:37:09;27.50;53.20
3638;DHT22;1835;50.068;8.154;2022-07-05T15:39:38;27.30;52.30
3638;DHT22;1835;50.068;8.154;2022-07-05T15:42:06;27.40;53.10
3638;DHT22;1835;50.068;8.154;2022-07-05T15:44:34;27.20;53.40
3638;DHT22;1835;50.068;8.154;2022-07-05T15:47:03;27.20;53.20
3638;DHT22;1835;50.068;8.154;2022-07-05T15:49:34;27.10;53.60
3638;DHT22;1835;50.068;8.154;2022-07-05T15:52:04;27.00;53.50
3638;DHT22;1835;50.068;8.154;2022-07-05T15:54:33;26.90;53.90
3638;DHT22;1835;50.068;8.154;2022-07-05T15:57:02;26.80;53.40
3638;DHT22;1835;50.068;8.154;2022-07-05T15:59:31;26.80;54.00
3638;DHT22;1835;50.068;8.154;2022-07-05T16:01:59;26.70;53.70
3638;DHT22;1835;50.068;8.154;2022-07-05T16:04:27;26.80;53.80
3638;DHT22;1835;50.068;8.154;2022-07-05T16:06:57;26.80;53.80
3638;DHT22;1835;50.068;8.154;2022-07-05T16:09:27;26.90;54.50
3638;DHT22;1835;50.068;8.154;2022-07-05T16:11:55;26.70;53.00
3638;DHT22;1835;50.068;8.154;2022-07-05T16:14:23;26.60;53.70
3638;DHT22;1835;50.068;8.154;2022-07-05T16:16:52;26.70;53.80
3638;DHT22;1835;50.068;8.154;2022-07-05T16:19:20;26.70;52.70
3638;DHT22;1835;50.068;8.154;2022-07-05T16:21:49;26.60;52.40
3638;DHT22;1835;50.068;8.154;2022-07-05T16:24:18;26.70;53.30
3638;DHT22;1835;50.068;8.154;2022-07-05T16:26:48;26.60;53.70
3638;DHT22;1835;50.068;8.154;2022-07-05T16:29:25;26.60;54.30
3638;DHT22;1835;50.068;8.154;2022-07-05T16:31:53;26.60;54.10
3638;DHT22;1835;50.068;8.154;2022-07-05T16:34:22;26.40;53.60